createdAt,value
2018-10-17T00:00:19.031Z,11.60
2018-10-17T00:02:48.159Z,11.70
2018-10-17T00:05:16.883Z,11.60
2018-10-17T00:07:45.558Z,11.60
2018-10-17T00:10:15.240Z,11.50
2018-10-17T00:12:44.308Z,11.50
2018-10-17T00:15:13.020Z,11.40
2018-10-17T00:17:42.085Z,11.30
2018-10-17T00:20:11.223Z,11.20
2018-10-17T00:22:39.934Z,11.20
2018-10-17T00:25:08.490Z,11.30
2018-10-17T00:27:37.744Z,11.40
2018-10-17T00:30:08.877Z,11.50
2018-10-17T00:32:37.925Z,11.40
2018-10-17T00:35:06.397Z,11.30
2018-10-17T00:37:35.640Z,11.20
2018-10-17T00:40:04.058Z,11.20
2018-10-17T00:42:33.084Z,11.20
2018-10-17T00:45:01.796Z,11.20
2018-10-17T00:47:30.875Z,11.20
2018-10-17T00:49:59.556Z,11.10
2018-10-17T00:52:28.261Z,11.20
2018-10-17T00:54:57.280Z,11.10
2018-10-17T00:57:26.197Z,11.10
2018-10-17T00:59:55.220Z,11.10
2018-10-17T01:02:24.061Z,11.00
2018-10-17T01:04:53.139Z,11.10
2018-10-17T01:07:22.188Z,10.90
2018-10-17T01:09:51.200Z,10.90
2018-10-17T01:12:20.209Z,10.90
2018-10-17T01:14:48.995Z,10.90
2018-10-17T01:17:18.054Z,10.80
2018-10-17T01:19:47.090Z,10.80
2018-10-17T01:22:15.796Z,10.90
2018-10-17T01:24:45.142Z,10.90
2018-10-17T01:27:13.930Z,10.90
2018-10-17T01:29:42.605Z,10.80
2018-10-17T01:32:11.776Z,10.90
2018-10-17T01:34:40.794Z,10.90
2018-10-17T01:37:10.511Z,10.80
2018-10-17T01:39:39.013Z,10.80
2018-10-17T01:42:14.025Z,10.80
2018-10-17T01:44:42.986Z,10.80
2018-10-17T01:47:11.805Z,10.80
2018-10-17T01:49:40.952Z,10.80
2018-10-17T01:52:09.979Z,10.80
2018-10-17T01:54:38.632Z,10.70
2018-10-17T01:57:08.037Z,10.60
2018-10-17T01:59:37.163Z,10.60
2018-10-17T02:02:05.501Z,10.60
2018-10-17T02:04:34.172Z,10.60
2018-10-17T02:07:02.901Z,10.60
2018-10-17T02:09:32.028Z,10.60
2018-10-17T02:12:01.025Z,10.60
2018-10-17T02:17:09.530Z,10.50
2018-10-17T02:19:38.625Z,10.50
2018-10-17T02:22:07.314Z,10.50
2018-10-17T02:24:36.412Z,10.50
2018-10-17T02:27:04.844Z,10.50
2018-10-17T02:29:33.889Z,10.50
2018-10-17T02:32:02.933Z,10.40
2018-10-17T02:34:35.873Z,10.40
2018-10-17T02:37:04.687Z,10.40
2018-10-17T02:39:33.870Z,10.40
2018-10-17T02:42:05.635Z,10.30
2018-10-17T02:44:34.394Z,10.20
2018-10-17T02:47:03.482Z,10.20
2018-10-17T02:49:32.666Z,10.30
2018-10-17T02:52:01.033Z,10.30
2018-10-17T02:54:29.915Z,10.30
2018-10-17T02:56:58.999Z,10.30
2018-10-17T02:59:27.762Z,10.20
2018-10-17T03:01:56.786Z,10.20
2018-10-17T03:04:25.833Z,10.20
2018-10-17T03:06:55.082Z,10.20
2018-10-17T03:09:24.349Z,10.20
2018-10-17T03:11:53.401Z,10.20
2018-10-17T03:14:22.453Z,10.20
2018-10-17T03:16:51.758Z,10.10
2018-10-17T03:19:20.962Z,10.10
2018-10-17T03:21:49.810Z,10.10
2018-10-17T03:24:18.531Z,10.10
2018-10-17T03:26:47.593Z,9.90
2018-10-17T03:29:16.992Z,9.90
2018-10-17T03:31:46.402Z,9.90
2018-10-17T03:34:15.474Z,9.90
2018-10-17T03:36:44.560Z,10.00
2018-10-17T03:39:13.255Z,10.00
2018-10-17T03:41:42.287Z,10.10
2018-10-17T03:44:11.295Z,10.10
2018-10-17T03:46:40.220Z,10.10
2018-10-17T03:49:09.264Z,10.10
2018-10-17T03:51:38.577Z,10.20
2018-10-17T03:54:07.583Z,10.20
2018-10-17T03:56:36.581Z,10.20
2018-10-17T03:59:05.837Z,10.20
2018-10-17T04:01:35.079Z,10.10
2018-10-17T04:04:03.779Z,10.00
2018-10-17T04:06:32.827Z,9.90
2018-10-17T04:09:01.206Z,9.90
2018-10-17T04:11:30.422Z,9.90
2018-10-17T04:13:59.785Z,9.90
2018-10-17T04:16:28.863Z,9.90
2018-10-17T04:18:57.607Z,9.90
2018-10-17T04:21:26.473Z,9.90
2018-10-17T04:23:55.196Z,9.90
2018-10-17T04:26:23.989Z,9.90
2018-10-17T04:28:53.047Z,9.90
2018-10-17T04:31:22.231Z,9.80
2018-10-17T04:33:51.249Z,9.80
2018-10-17T04:36:20.036Z,9.70
2018-10-17T04:38:49.200Z,9.70
2018-10-17T04:41:18.156Z,9.80
2018-10-17T04:43:47.339Z,9.80
2018-10-17T04:46:16.041Z,9.80
2018-10-17T04:48:44.762Z,9.80
2018-10-17T04:51:13.573Z,9.80
2018-10-17T04:53:42.226Z,9.70
2018-10-17T04:56:11.261Z,9.70
2018-10-17T04:58:40.282Z,9.60
2018-10-17T05:01:08.967Z,9.60
2018-10-17T05:03:37.528Z,9.50
2018-10-17T05:06:06.532Z,9.60
2018-10-17T05:08:35.644Z,9.60
2018-10-17T05:11:04.848Z,9.50
2018-10-17T05:13:33.710Z,9.50
2018-10-17T05:16:02.395Z,9.40
2018-10-17T05:18:31.407Z,9.50
2018-10-17T05:21:00.396Z,9.50
2018-10-17T05:23:29.440Z,9.50
2018-10-17T05:25:58.494Z,9.50
2018-10-17T05:28:27.235Z,9.50
2018-10-17T05:30:56.277Z,9.40
2018-10-17T05:33:25.303Z,9.50
2018-10-17T05:35:54.506Z,9.50
2018-10-17T05:38:23.577Z,9.50
2018-10-17T05:40:52.308Z,9.50
2018-10-17T05:43:21.238Z,9.60
2018-10-17T05:45:50.336Z,9.50
2018-10-17T05:48:19.535Z,9.50
2018-10-17T05:50:48.227Z,9.40
2018-10-17T05:53:17.230Z,9.40
2018-10-17T05:55:46.416Z,9.40
2018-10-17T05:58:15.440Z,9.40
2018-10-17T06:00:44.481Z,9.50
2018-10-17T06:03:13.549Z,9.50
2018-10-17T06:05:42.237Z,9.50
2018-10-17T06:08:11.260Z,9.40
2018-10-17T06:10:40.277Z,9.40
2018-10-17T06:13:09.022Z,9.40
2018-10-17T06:15:37.976Z,9.50
2018-10-17T06:18:07.279Z,9.60
2018-10-17T06:20:36.342Z,9.60
2018-10-17T06:23:05.357Z,9.70
2018-10-17T06:25:34.669Z,9.80
2018-10-17T06:28:03.871Z,9.90
2018-10-17T06:30:32.635Z,10.00
2018-10-17T06:33:01.902Z,10.10
2018-10-17T06:35:30.618Z,10.10
2018-10-17T06:37:59.311Z,10.20
2018-10-17T06:40:28.220Z,10.30
2018-10-17T06:42:57.263Z,10.40
2018-10-17T06:45:25.842Z,10.50
2018-10-17T06:47:54.866Z,10.50
2018-10-17T06:50:23.901Z,10.60
2018-10-17T06:52:52.620Z,10.60
2018-10-17T06:55:21.630Z,10.80
2018-10-17T06:57:50.702Z,11.10
2018-10-17T07:00:19.492Z,11.40
2018-10-17T07:02:48.531Z,11.70
2018-10-17T07:05:17.268Z,12.20
2018-10-17T07:07:46.156Z,12.40
2018-10-17T07:10:14.849Z,12.60
2018-10-17T07:12:43.857Z,12.70
2018-10-17T07:15:12.630Z,13.10
2018-10-17T07:17:41.421Z,13.40
2018-10-17T07:20:10.379Z,13.90
2018-10-17T07:22:38.995Z,14.30
2018-10-17T07:25:07.456Z,14.50
2018-10-17T07:27:36.827Z,14.50
2018-10-17T07:30:06.401Z,14.60
2018-10-17T07:32:35.195Z,14.50
2018-10-17T07:35:03.349Z,14.90
2018-10-17T07:37:31.829Z,15.20
2018-10-17T07:40:00.636Z,15.60
2018-10-17T07:42:29.043Z,15.70
2018-10-17T07:44:57.497Z,15.60
2018-10-17T07:47:25.905Z,15.50
2018-10-17T07:49:54.335Z,15.60
2018-10-17T07:52:23.161Z,15.70
2018-10-17T07:54:51.941Z,15.50
2018-10-17T07:57:20.694Z,15.40
2018-10-17T07:59:49.474Z,15.30
2018-10-17T08:02:18.499Z,15.40
2018-10-17T08:04:47.297Z,15.70
2018-10-17T08:07:16.349Z,16.10
2018-10-17T08:09:45.109Z,16.60
2018-10-17T08:12:13.201Z,16.60
2018-10-17T08:14:42.424Z,17.10
2018-10-17T08:17:12.018Z,17.30
2018-10-17T08:19:40.827Z,17.80
2018-10-17T08:22:09.593Z,18.10
2018-10-17T08:24:38.050Z,18.20
2018-10-17T08:27:06.811Z,18.40
2018-10-17T08:29:35.561Z,18.90
2018-10-17T08:32:03.993Z,19.10
2018-10-17T08:34:33.224Z,19.50
2018-10-17T08:37:02.280Z,19.50
2018-10-17T08:39:30.611Z,19.30
2018-10-17T08:41:59.353Z,19.60
2018-10-17T08:44:28.185Z,20.50
2018-10-17T08:46:56.610Z,20.60
2018-10-17T08:49:25.109Z,20.60
2018-10-17T08:51:54.250Z,20.70
2018-10-17T08:54:23.039Z,20.50
2018-10-17T08:56:51.997Z,21.10
2018-10-17T08:59:21.355Z,21.30
2018-10-17T09:01:50.007Z,21.40
2018-10-17T09:04:19.128Z,21.80
2018-10-17T09:06:47.838Z,22.00
2018-10-17T09:09:16.690Z,22.30
2018-10-17T09:11:45.789Z,22.50
2018-10-17T09:14:15.092Z,22.40
2018-10-17T09:16:44.696Z,22.50
2018-10-17T09:19:13.810Z,22.40
2018-10-17T09:21:42.621Z,21.80
2018-10-17T09:24:11.507Z,21.10
2018-10-17T09:26:39.947Z,21.00
2018-10-17T09:29:08.751Z,20.70
2018-10-17T09:31:37.497Z,20.50
2018-10-17T09:34:05.654Z,20.20
2018-10-17T09:36:34.208Z,20.10
2018-10-17T09:39:02.277Z,20.20
2018-10-17T09:41:30.694Z,20.20
2018-10-17T09:43:59.445Z,20.10
2018-10-17T09:46:28.769Z,19.80
2018-10-17T09:48:57.505Z,19.80
2018-10-17T09:51:26.258Z,19.70
2018-10-17T09:53:55.029Z,19.70
2018-10-17T09:56:23.588Z,19.80
2018-10-17T09:58:52.492Z,19.60
2018-10-17T10:01:26.598Z,19.50
2018-10-17T10:03:55.349Z,19.30
2018-10-17T10:06:24.833Z,19.40
2018-10-17T10:08:53.685Z,19.50
2018-10-17T10:11:22.131Z,19.40
2018-10-17T10:13:50.474Z,19.20
2018-10-17T10:16:18.946Z,19.10
2018-10-17T10:18:47.556Z,19.30
2018-10-17T10:21:16.298Z,19.30
2018-10-17T10:23:44.394Z,19.40
2018-10-17T10:26:13.073Z,19.30
2018-10-17T10:28:42.374Z,19.40
2018-10-17T10:31:10.865Z,19.40
2018-10-17T10:33:39.870Z,19.40
2018-10-17T10:36:08.747Z,19.40
2018-10-17T10:38:37.349Z,19.60
2018-10-17T10:41:05.828Z,19.50
2018-10-17T10:43:34.641Z,19.50
2018-10-17T10:46:03.315Z,19.60
2018-10-17T10:48:31.753Z,19.70
2018-10-17T10:51:00.524Z,19.50
2018-10-17T10:53:29.526Z,19.60
2018-10-17T10:55:58.319Z,19.80
2018-10-17T10:58:27.113Z,19.90
2018-10-17T11:00:56.073Z,20.10
2018-10-17T11:03:25.178Z,20.20
2018-10-17T11:05:53.726Z,20.40
2018-10-17T11:08:22.122Z,20.60
2018-10-17T11:10:50.614Z,20.60
2018-10-17T11:13:19.263Z,20.70
2018-10-17T11:15:47.689Z,20.60
2018-10-17T11:18:15.855Z,20.90
2018-10-17T11:20:44.270Z,21.20
2018-10-17T11:23:13.504Z,21.70
2018-10-17T11:25:41.911Z,22.10
2018-10-17T11:28:10.314Z,22.10
2018-10-17T11:30:39.244Z,22.40
2018-10-17T11:33:07.951Z,23.70
2018-10-17T11:35:36.749Z,25.00
2018-10-17T11:38:05.195Z,25.70
2018-10-17T11:40:34.564Z,27.50
2018-10-17T11:43:02.867Z,29.10
2018-10-17T11:45:31.811Z,28.90
2018-10-17T11:48:01.040Z,29.40
2018-10-17T11:50:29.737Z,29.60
2018-10-17T11:52:58.664Z,30.90
2018-10-17T11:55:27.561Z,30.50
2018-10-17T11:57:55.887Z,31.20
2018-10-17T12:00:24.935Z,31.70
2018-10-17T12:02:53.093Z,31.50
2018-10-17T12:05:22.492Z,31.80
2018-10-17T12:07:51.309Z,32.30
2018-10-17T12:10:19.853Z,31.40
2018-10-17T12:12:48.437Z,31.70
2018-10-17T12:15:17.325Z,31.40
2018-10-17T12:17:46.039Z,31.20
2018-10-17T12:20:15.289Z,31.60
2018-10-17T12:22:45.086Z,31.90
2018-10-17T12:25:13.851Z,32.10
2018-10-17T12:27:42.368Z,31.80
2018-10-17T12:30:13.473Z,32.40
2018-10-17T12:32:42.410Z,32.50
2018-10-17T12:35:11.681Z,32.40
2018-10-17T12:37:40.566Z,31.90
2018-10-17T12:40:09.854Z,32.00
2018-10-17T12:42:38.826Z,32.30
2018-10-17T12:45:07.078Z,32.20
2018-10-17T12:47:35.994Z,31.80
2018-10-17T12:50:04.921Z,32.00
2018-10-17T12:52:33.607Z,31.90
2018-10-17T12:55:02.675Z,31.60
2018-10-17T12:57:31.382Z,31.40
2018-10-17T13:00:01.246Z,32.10
2018-10-17T13:02:29.722Z,32.90
2018-10-17T13:04:59.019Z,32.40
2018-10-17T13:07:27.769Z,32.90
2018-10-17T13:09:56.270Z,32.00
2018-10-17T13:12:26.143Z,31.80
2018-10-17T13:14:54.881Z,31.40
2018-10-17T13:17:23.442Z,31.60
2018-10-17T13:19:52.149Z,32.00
2018-10-17T13:22:20.869Z,31.90
2018-10-17T13:24:49.653Z,32.20
2018-10-17T13:27:18.083Z,32.30
2018-10-17T13:29:46.468Z,32.70
2018-10-17T13:32:14.897Z,32.20
2018-10-17T13:34:43.645Z,32.30
2018-10-17T13:37:12.886Z,32.40
2018-10-17T13:39:41.912Z,32.00
2018-10-17T13:42:10.815Z,32.40
2018-10-17T13:44:39.561Z,31.50
2018-10-17T13:47:08.397Z,31.40
2018-10-17T13:49:37.520Z,31.90
2018-10-17T13:52:06.008Z,32.10
2018-10-17T13:54:39.238Z,32.00
2018-10-17T13:57:07.817Z,32.50
2018-10-17T13:59:37.291Z,32.40
2018-10-17T14:02:05.492Z,32.30
2018-10-17T14:04:33.762Z,31.60
2018-10-17T14:07:02.583Z,30.70
2018-10-17T14:09:31.236Z,30.30
2018-10-17T14:11:59.357Z,29.80
2018-10-17T14:14:28.635Z,29.70
2018-10-17T14:16:57.429Z,29.80
2018-10-17T14:19:26.117Z,29.30
2018-10-17T14:21:55.039Z,28.70
2018-10-17T14:24:23.405Z,29.30
2018-10-17T14:26:51.887Z,29.50
2018-10-17T14:29:20.897Z,29.20
2018-10-17T14:31:49.922Z,29.10
2018-10-17T14:34:18.717Z,28.20
2018-10-17T14:36:47.742Z,27.60
2018-10-17T14:39:16.607Z,27.50
2018-10-17T14:41:45.439Z,27.30
2018-10-17T14:44:14.149Z,26.60
2018-10-17T14:46:42.889Z,26.10
2018-10-17T14:49:11.285Z,25.60
2018-10-17T14:51:39.704Z,24.90
2018-10-17T14:54:07.761Z,24.70
2018-10-17T14:56:36.509Z,25.10
2018-10-17T14:59:05.330Z,25.00
2018-10-17T15:01:33.872Z,24.20
2018-10-17T15:04:03.090Z,23.80
2018-10-17T15:06:31.493Z,23.20
2018-10-17T15:09:00.265Z,22.90
2018-10-17T15:11:29.269Z,22.50
2018-10-17T15:13:58.277Z,22.30
2018-10-17T15:16:26.503Z,22.30
2018-10-17T15:18:55.270Z,22.00
2018-10-17T15:21:23.692Z,21.90
2018-10-17T15:23:52.423Z,21.80
2018-10-17T15:26:20.472Z,21.70
2018-10-17T15:28:48.889Z,21.70
2018-10-17T15:31:17.671Z,21.40
2018-10-17T15:33:46.299Z,21.20
2018-10-17T15:36:15.309Z,21.00
2018-10-17T15:38:44.349Z,20.80
2018-10-17T15:41:12.773Z,20.90
2018-10-17T15:43:41.567Z,20.90
2018-10-17T15:46:10.461Z,20.40
2018-10-17T15:48:39.182Z,20.30
2018-10-17T15:51:07.631Z,20.20
2018-10-17T15:53:36.562Z,20.10
2018-10-17T15:56:04.896Z,20.10
2018-10-17T15:58:33.389Z,20.00
2018-10-17T16:01:02.193Z,19.80
2018-10-17T16:03:31.009Z,19.50
2018-10-17T16:05:59.805Z,19.40
2018-10-17T16:08:28.740Z,19.10
2018-10-17T16:10:59.431Z,18.80
2018-10-17T16:13:28.182Z,18.90
2018-10-17T16:15:56.889Z,18.90
2018-10-17T16:18:25.686Z,18.70
2018-10-17T16:20:54.478Z,18.50
2018-10-17T16:23:23.168Z,18.30
2018-10-17T16:25:51.589Z,18.20
2018-10-17T16:28:20.158Z,18.20
2018-10-17T16:30:48.665Z,18.10
2018-10-17T16:33:17.570Z,18.00
2018-10-17T16:35:46.275Z,18.10
2018-10-17T16:38:14.762Z,18.00
2018-10-17T16:40:43.761Z,17.90
2018-10-17T16:43:12.685Z,17.80
2018-10-17T16:45:41.462Z,17.90
2018-10-17T16:48:09.926Z,17.80
2018-10-17T16:50:38.917Z,17.50
2018-10-17T16:53:07.777Z,17.40
2018-10-17T16:55:36.548Z,17.30
2018-10-17T16:58:04.994Z,17.20
2018-10-17T17:00:33.955Z,17.10
2018-10-17T17:03:02.149Z,17.20
2018-10-17T17:05:31.023Z,17.20
2018-10-17T17:07:59.414Z,17.00
2018-10-17T17:10:27.977Z,16.80
2018-10-17T17:12:56.749Z,16.60
2018-10-17T17:15:25.163Z,16.60
2018-10-17T17:17:54.037Z,16.60
2018-10-17T17:20:22.657Z,16.50
2018-10-17T17:22:50.857Z,16.40
2018-10-17T17:25:20.115Z,16.30
2018-10-17T17:27:49.724Z,16.30
2018-10-17T17:30:19.153Z,16.20
2018-10-17T17:32:48.912Z,16.30
2018-10-17T17:35:17.670Z,16.30
2018-10-17T17:37:46.385Z,16.20
2018-10-17T17:40:15.357Z,16.20
2018-10-17T17:42:46.965Z,16.30
2018-10-17T17:45:15.449Z,16.30
2018-10-17T17:47:44.172Z,16.20
2018-10-17T17:50:12.581Z,16.10
2018-10-17T17:52:40.884Z,16.00
2018-10-17T17:55:09.823Z,15.90
2018-10-17T17:57:38.625Z,15.90
2018-10-17T18:00:07.198Z,15.80
2018-10-17T18:02:35.949Z,15.70
2018-10-17T18:05:04.334Z,15.70
2018-10-17T18:07:32.846Z,15.70
2018-10-17T18:10:01.938Z,15.80
2018-10-17T18:12:31.237Z,15.80
2018-10-17T18:15:00.274Z,15.70
2018-10-17T18:17:29.133Z,15.70
2018-10-17T18:19:58.136Z,15.60
2018-10-17T18:22:26.907Z,15.60
2018-10-17T18:24:56.150Z,15.50
2018-10-17T18:27:24.860Z,15.50
2018-10-17T18:29:54.480Z,15.60
2018-10-17T18:32:23.638Z,15.50
2018-10-17T18:34:52.662Z,15.40
2018-10-17T18:37:21.479Z,15.30
2018-10-17T18:39:50.235Z,15.30
2018-10-17T18:42:20.717Z,15.40
2018-10-17T18:44:49.564Z,15.40
2018-10-17T18:47:18.502Z,15.30
2018-10-17T18:49:47.233Z,15.20
2018-10-17T18:52:15.940Z,15.10
2018-10-17T18:54:45.064Z,14.90
2018-10-17T18:57:14.235Z,14.80
2018-10-17T18:59:43.481Z,14.80
2018-10-17T19:02:11.926Z,15.00
2018-10-17T19:04:40.856Z,15.10
2018-10-17T19:07:10.110Z,15.10
2018-10-17T19:09:39.170Z,15.10
2018-10-17T19:12:07.988Z,15.00
2018-10-17T19:14:37.065Z,15.00
2018-10-17T19:17:05.468Z,14.80
2018-10-17T19:19:34.772Z,14.70
2018-10-17T19:22:03.249Z,14.80
2018-10-17T19:24:31.945Z,14.70
2018-10-17T19:27:00.855Z,14.60
2018-10-17T19:29:30.157Z,14.70
2018-10-17T19:31:58.839Z,14.70
2018-10-17T19:34:27.833Z,14.60
2018-10-17T19:37:03.162Z,14.50
2018-10-17T19:39:32.235Z,14.40
2018-10-17T19:42:00.980Z,14.20
2018-10-17T19:44:30.062Z,14.20
2018-10-17T19:46:59.130Z,14.20
2018-10-17T19:49:28.191Z,14.10
2018-10-17T19:51:57.241Z,14.10
2018-10-17T19:54:26.241Z,14.10
2018-10-17T19:56:55.343Z,14.10
2018-10-17T19:59:24.658Z,14.10
2018-10-17T20:01:53.409Z,14.10
2018-10-17T20:04:22.570Z,14.10
2018-10-17T20:06:50.941Z,14.10
2018-10-17T20:09:20.121Z,14.10
2018-10-17T20:11:49.210Z,14.10
2018-10-17T20:14:20.393Z,14.10
2018-10-17T20:16:49.490Z,13.90
2018-10-17T20:19:18.201Z,13.90
2018-10-17T20:21:46.921Z,13.80
2018-10-17T20:24:15.647Z,13.70
2018-10-17T20:26:44.526Z,13.70
2018-10-17T20:29:13.251Z,13.80
2018-10-17T20:31:42.064Z,13.80
2018-10-17T20:34:11.097Z,13.70
2018-10-17T20:36:40.141Z,13.60
2018-10-17T20:39:11.084Z,13.50
2018-10-17T20:41:40.597Z,13.50
2018-10-17T20:44:09.428Z,13.50
2018-10-17T20:46:38.398Z,13.40
2018-10-17T20:49:07.850Z,13.30
2018-10-17T20:51:36.512Z,13.30
2018-10-17T20:54:06.603Z,13.20
2018-10-17T20:56:35.781Z,13.20
2018-10-17T20:59:04.470Z,13.10
2018-10-17T21:01:34.125Z,13.10
2018-10-17T21:04:03.204Z,13.20
2018-10-17T21:06:32.386Z,13.10
2018-10-17T21:09:01.393Z,13.10
2018-10-17T21:11:30.474Z,12.90
2018-10-17T21:14:00.212Z,12.80
2018-10-17T21:16:29.434Z,12.80
2018-10-17T21:18:58.471Z,12.70
2018-10-17T21:21:27.482Z,12.60
2018-10-17T21:23:56.674Z,12.70
2018-10-17T21:26:25.418Z,12.70
2018-10-17T21:28:54.130Z,12.70
2018-10-17T21:31:23.117Z,12.80
2018-10-17T21:33:52.030Z,12.70
2018-10-17T21:36:21.169Z,12.50
2018-10-17T21:38:50.150Z,12.50
2018-10-17T21:41:19.169Z,12.50
2018-10-17T21:43:48.184Z,12.50
2018-10-17T21:46:17.001Z,12.50
2018-10-17T21:48:46.057Z,12.50
2018-10-17T21:51:15.077Z,12.40
2018-10-17T21:53:43.757Z,12.40
2018-10-17T21:56:12.325Z,12.30
2018-10-17T21:58:41.493Z,12.40
2018-10-17T22:01:10.187Z,12.40
2018-10-17T22:03:39.257Z,12.40
2018-10-17T22:06:07.929Z,12.50
2018-10-17T22:08:36.626Z,12.50
2018-10-17T22:11:05.854Z,12.50
2018-10-17T22:13:34.867Z,12.40
2018-10-17T22:16:03.888Z,12.30
2018-10-17T22:18:32.606Z,12.20
2018-10-17T22:21:01.316Z,12.20
2018-10-17T22:23:30.177Z,12.20
2018-10-17T22:25:59.271Z,12.10
2018-10-17T22:28:28.163Z,12.10
2018-10-17T22:30:57.208Z,12.10
2018-10-17T22:33:25.666Z,12.10
2018-10-17T22:35:54.381Z,12.00
2018-10-17T22:38:23.383Z,12.00
2018-10-17T22:40:52.094Z,12.10
2018-10-17T22:43:20.929Z,12.10
2018-10-17T22:45:49.936Z,12.00
2018-10-17T22:48:18.346Z,12.00
2018-10-17T22:50:47.398Z,12.00
2018-10-17T22:53:16.424Z,12.00
2018-10-17T22:55:46.974Z,12.00
2018-10-17T22:58:15.715Z,11.90
2018-10-17T23:00:44.778Z,11.90
2018-10-17T23:03:14.113Z,11.90
2018-10-17T23:05:43.508Z,11.90
2018-10-17T23:08:12.760Z,11.80
2018-10-17T23:10:41.986Z,11.80
2018-10-17T23:13:10.713Z,11.70
2018-10-17T23:15:39.810Z,11.70
2018-10-17T23:18:08.217Z,11.70
2018-10-17T23:20:37.236Z,11.70
2018-10-17T23:23:06.353Z,11.70
2018-10-17T23:25:35.329Z,11.60
2018-10-17T23:28:04.021Z,11.70
2018-10-17T23:30:33.101Z,11.70
2018-10-17T23:33:02.166Z,11.60
2018-10-17T23:35:31.170Z,11.60
2018-10-17T23:37:59.872Z,11.60
2018-10-17T23:40:29.131Z,11.60
2018-10-17T23:42:57.893Z,11.60
2018-10-17T23:45:26.958Z,11.60
2018-10-17T23:47:55.691Z,11.50
2018-10-17T23:50:24.571Z,11.50
2018-10-17T23:52:53.617Z,11.40
2018-10-17T23:55:22.975Z,11.40
2018-10-17T23:57:51.732Z,11.40
